Aeroporto :
LOGIN :

Iscrizione | Disclaimer

   EN    FR    IT 

 










Sommario :    VFR   VFR Marginale   IFR   IFR Intensivo   IFR Molto Intensivo
Visibilità : 
Base nubi : 
>= 8 km
>= 3000ft
5 / 8 km
1000 / 3000 ft
1500m / 5 km
500 / 1000 ft
800 / 1500m
200 / 500 ft
< 800m
< 200 ft
Simboli :   Temporali  Nebbia  Neve Forte  Precipitazioni Forti  Vento > 20 kt
SIGMETs :   Varie  Temporali  Ghiacco  Turbolenza  Onda orograficha  Ceneri Vulcaniche






- Altitudine del aeroporto : 0 ft


ENQC - Troll C Platform

ULTIMO METAR :
  • 231320Z AUTO 18027KT 9999NDV -SHRA FEW008/// BKN053/// 11/09 Q1004 W///S5

METARs OBSOLETI :
  • 231250Z AUTO 18029KT 9999NDV FEW008/// BKN041/// 11/09 Q1004 W///S6
  • 231220Z AUTO 18027KT 9999NDV -DZ FEW008/// BKN043/// 11/09 Q1005 W///S5
  • 231150Z AUTO 18026KT 9999NDV SCT008/// BKN036/// 11/09 Q1005 W///S5
  • 231120Z AUTO 18026KT 9999NDV BKN009/// OVC035/// 11/09 Q1005 W///S6
  • 231050Z AUTO 18027KT 9999NDV OVC011/// 11/09 Q1005 W///S6

TAF N/A



MetMap, La meteo Aeronautica in un colpo d'occhio ! - Copyright ORBIFLY Dicembre 2007 - Disclaimer

ORBIFLY MET'MAP TEAM :

Programmazione e sviluppo : Alexandra Zaïnal
Concezione e sviluppo : Baudouin d'Aumeries
Co-Programmazione e sviluppo : Marc-Olivier Méhu
Supporto tecnico e logistico : Manuel Goepfert
Aiuto per la traduzione : Arnaldo La Scala

Contatto : metmap@orbifly.com




FONTI E CREDITI :

   NOAA